sensor_id;sensor_type;location;lat;lon;timestamp;pressure;altitude;pressure_sealevel;temperature;humidity
10658;BME280;5377;43.276;26.930;2023-04-23T00:01:23;99177.88;;;8.95;100.00
10658;BME280;5377;43.276;26.930;2023-04-23T00:03:54;99181.28;;;9.04;100.00
10658;BME280;5377;43.276;26.930;2023-04-23T00:06:21;99170.31;;;8.99;100.00
10658;BME280;5377;43.276;26.930;2023-04-23T00:08:52;99165.59;;;9.01;100.00
10658;BME280;5377;43.276;26.930;2023-04-23T00:11:19;99163.06;;;8.93;100.00
10658;BME280;5377;43.276;26.930;2023-04-23T00:13:47;99168.41;;;8.93;100.00
10658;BME280;5377;43.276;26.930;2023-04-23T00:16:14;99173.81;;;8.78;100.00
10658;BME280;5377;43.276;26.930;2023-04-23T00:18:41;99160.66;;;8.77;100.00
10658;BME280;5377;43.276;26.930;2023-04-23T00:21:09;99163.00;;;8.86;100.00
10658;BME280;5377;43.276;26.930;2023-04-23T00:23:37;99162.56;;;8.83;100.00
10658;BME280;5377;43.276;26.930;2023-04-23T00:26:04;99157.53;;;8.73;100.00
10658;BME280;5377;43.276;26.930;2023-04-23T00:28:30;99156.19;;;8.62;100.00
10658;BME280;5377;43.276;26.930;2023-04-23T00:30:57;99158.94;;;8.69;100.00
10658;BME280;5377;43.276;26.930;2023-04-23T00:33:24;99152.50;;;8.63;100.00
10658;BME280;5377;43.276;26.930;2023-04-23T00:35:51;99164.81;;;8.64;100.00
10658;BME280;5377;43.276;26.930;2023-04-23T00:38:19;99160.69;;;8.62;100.00
10658;BME280;5377;43.276;26.930;2023-04-23T00:40:46;99155.94;;;8.57;100.00
10658;BME280;5377;43.276;26.930;2023-04-23T00:43:13;99155.34;;;8.62;100.00
10658;BME280;5377;43.276;26.930;2023-04-23T00:45:40;99161.06;;;8.59;100.00
10658;BME280;5377;43.276;26.930;2023-04-23T00:48:07;99153.50;;;8.62;100.00
10658;BME280;5377;43.276;26.930;2023-04-23T00:50:34;99159.88;;;8.61;100.00
10658;BME280;5377;43.276;26.930;2023-04-23T00:53:01;99156.13;;;8.56;100.00
10658;BME280;5377;43.276;26.930;2023-04-23T00:55:30;99171.31;;;8.55;100.00
10658;BME280;5377;43.276;26.930;2023-04-23T00:57:57;99161.66;;;8.54;100.00
10658;BME280;5377;43.276;26.930;2023-04-23T01:00:24;99163.09;;;8.57;100.00
10658;BME280;5377;43.276;26.930;2023-04-23T01:02:51;99160.63;;;8.55;100.00
10658;BME280;5377;43.276;26.930;2023-04-23T01:05:21;99162.09;;;8.58;100.00
10658;BME280;5377;43.276;26.930;2023-04-23T01:07:48;99153.50;;;8.62;100.00
10658;BME280;5377;43.276;26.930;2023-04-23T01:10:15;99159.88;;;8.61;100.00
10658;BME280;5377;43.276;26.930;2023-04-23T01:12:44;99164.19;;;8.41;100.00
10658;BME280;5377;43.276;26.930;2023-04-23T01:15:11;99159.47;;;8.43;100.00
10658;BME280;5377;43.276;26.930;2023-04-23T01:17:38;99162.91;;;8.37;100.00
10658;BME280;5377;43.276;26.930;2023-04-23T01:20:06;99168.09;;;8.30;100.00
10658;BME280;5377;43.276;26.930;2023-04-23T01:22:36;99167.28;;;8.30;100.00
10658;BME280;5377;43.276;26.930;2023-04-23T01:25:03;99168.94;;;8.31;100.00
10658;BME280;5377;43.276;26.930;2023-04-23T01:27:31;99163.41;;;8.32;100.00
10658;BME280;5377;43.276;26.930;2023-04-23T01:30:00;99171.53;;;8.39;100.00
10658;BME280;5377;43.276;26.930;2023-04-23T01:32:29;99181.84;;;8.42;100.00
10658;BME280;5377;43.276;26.930;2023-04-23T01:34:57;99173.56;;;8.37;100.00
10658;BME280;5377;43.276;26.930;2023-04-23T01:37:25;99166.22;;;8.39;100.00
10658;BME280;5377;43.276;26.930;2023-04-23T01:39:53;99166.59;;;8.36;100.00
10658;BME280;5377;43.276;26.930;2023-04-23T01:42:20;99172.94;;;8.35;100.00
10658;BME280;5377;43.276;26.930;2023-04-23T01:44:47;99175.59;;;8.35;100.00
10658;BME280;5377;43.276;26.930;2023-04-23T01:47:15;99166.81;;;8.26;100.00
10658;BME280;5377;43.276;26.930;2023-04-23T01:49:42;99181.47;;;8.16;100.00
10658;BME280;5377;43.276;26.930;2023-04-23T01:52:08;99181.47;;;8.16;100.00
10658;BME280;5377;43.276;26.930;2023-04-23T01:54:35;99185.16;;;8.14;100.00
10658;BME280;5377;43.276;26.930;2023-04-23T01:57:04;99183.88;;;8.10;100.00
10658;BME280;5377;43.276;26.930;2023-04-23T01:59:30;99188.38;;;8.10;100.00
10658;BME280;5377;43.276;26.930;2023-04-23T02:01:57;99179.56;;;8.09;100.00
10658;BME280;5377;43.276;26.930;2023-04-23T02:04:24;99177.34;;;8.13;100.00
10658;BME280;5377;43.276;26.930;2023-04-23T02:06:51;99180.66;;;8.15;100.00
10658;BME280;5377;43.276;26.930;2023-04-23T02:09:18;99175.13;;;8.17;100.00
10658;BME280;5377;43.276;26.930;2023-04-23T02:11:45;99183.06;;;8.10;100.00
10658;BME280;5377;43.276;26.930;2023-04-23T02:14:13;99177.34;;;8.13;100.00
10658;BME280;5377;43.276;26.930;2023-04-23T02:16:41;99179.81;;;8.14;100.00
10658;BME280;5377;43.276;26.930;2023-04-23T02:19:09;99172.56;;;8.08;100.00
10658;BME280;5377;43.276;26.930;2023-04-23T02:21:36;99176.63;;;8.04;100.00
10658;BME280;5377;43.276;26.930;2023-04-23T02:24:03;99176.88;;;7.95;100.00
10658;BME280;5377;43.276;26.930;2023-04-23T02:26:31;99173.03;;;7.97;100.00
10658;BME280;5377;43.276;26.930;2023-04-23T02:28:58;99172.88;;;7.99;100.00
10658;BME280;5377;43.276;26.930;2023-04-23T02:31:26;99170.28;;;7.91;100.00
10658;BME280;5377;43.276;26.930;2023-04-23T02:33:53;99168.50;;;7.98;100.00
10658;BME280;5377;43.276;26.930;2023-04-23T02:36:19;99165.94;;;7.90;100.00
10658;BME280;5377;43.276;26.930;2023-04-23T02:38:46;99171.28;;;7.90;100.00
10658;BME280;5377;43.276;26.930;2023-04-23T02:41:15;99167.06;;;7.80;100.00
10658;BME280;5377;43.276;26.930;2023-04-23T02:43:42;99168.16;;;7.71;100.00
10658;BME280;5377;43.276;26.930;2023-04-23T02:46:09;99174.41;;;7.78;100.00
10658;BME280;5377;43.276;26.930;2023-04-23T02:48:39;99170.56;;;7.81;100.00
10658;BME280;5377;43.276;26.930;2023-04-23T02:51:08;99179.19;;;7.83;100.00
10658;BME280;5377;43.276;26.930;2023-04-23T02:53:35;99173.59;;;7.78;100.00
10658;BME280;5377;43.276;26.930;2023-04-23T02:56:03;99175.34;;;7.71;100.00
10658;BME280;5377;43.276;26.930;2023-04-23T02:58:30;99193.25;;;7.77;100.00
10658;BME280;5377;43.276;26.930;2023-04-23T03:00:57;99183.34;;;7.71;100.00
10658;BME280;5377;43.276;26.930;2023-04-23T03:03:23;99182.94;;;7.59;100.00
10658;BME280;5377;43.276;26.930;2023-04-23T03:05:53;99183.97;;;7.73;100.00
10658;BME280;5377;43.276;26.930;2023-04-23T03:08:20;99181.22;;;7.81;100.00
10658;BME280;5377;43.276;26.930;2023-04-23T03:10:47;99186.19;;;7.84;100.00
10658;BME280;5377;43.276;26.930;2023-04-23T03:13:14;99187.09;;;7.91;100.00
10658;BME280;5377;43.276;26.930;2023-04-23T03:15:41;99181.84;;;7.83;100.00
10658;BME280;5377;43.276;26.930;2023-04-23T03:18:08;99183.69;;;7.97;100.00
10658;BME280;5377;43.276;26.930;2023-04-23T03:20:35;99182.16;;;8.03;100.00
10658;BME280;5377;43.276;26.930;2023-04-23T03:23:03;99186.28;;;8.05;100.00
10658;BME280;5377;43.276;26.930;2023-04-23T03:25:31;99192.78;;;8.18;100.00
10658;BME280;5377;43.276;26.930;2023-04-23T03:27:57;99190.88;;;8.11;100.00
10658;BME280;5377;43.276;26.930;2023-04-23T03:30:24;99187.94;;;8.06;100.00
10658;BME280;5377;43.276;26.930;2023-04-23T03:32:53;99191.06;;;8.10;100.00
10658;BME280;5377;43.276;26.930;2023-04-23T03:35:20;99191.03;;;8.25;100.00
10658;BME280;5377;43.276;26.930;2023-04-23T03:37:47;99189.00;;;8.27;100.00
10658;BME280;5377;43.276;26.930;2023-04-23T03:40:15;99192.03;;;8.24;100.00
10658;BME280;5377;43.276;26.930;2023-04-23T03:42:42;99196.75;;;8.22;100.00
10658;BME280;5377;43.276;26.930;2023-04-23T03:45:09;99198.78;;;8.20;100.00
10658;BME280;5377;43.276;26.930;2023-04-23T03:47:37;99191.41;;;8.22;100.00
10658;BME280;5377;43.276;26.930;2023-04-23T03:50:05;99190.94;;;8.18;100.00
10658;BME280;5377;43.276;26.930;2023-04-23T03:52:32;99203.28;;;8.19;100.00
10658;BME280;5377;43.276;26.930;2023-04-23T03:54:59;99191.41;;;8.22;100.00
10658;BME280;5377;43.276;26.930;2023-04-23T03:57:27;99207.69;;;8.27;100.00
10658;BME280;5377;43.276;26.930;2023-04-23T03:59:54;99202.97;;;8.29;100.00
10658;BME280;5377;43.276;26.930;2023-04-23T04:02:21;99207.50;;;8.28;100.00
10658;BME280;5377;43.276;26.930;2023-04-23T04:04:48;99208.53;;;8.42;100.00
10658;BME280;5377;43.276;26.930;2023-04-23T04:07:16;99212.28;;;8.48;100.00
10658;BME280;5377;43.276;26.930;2023-04-23T04:09:43;99216.44;;;8.50;100.00
10658;BME280;5377;43.276;26.930;2023-04-23T04:12:11;99211.47;;;8.47;100.00
10658;BME280;5377;43.276;26.930;2023-04-23T04:14:39;99212.66;;;8.44;100.00
10658;BME280;5377;43.276;26.930;2023-04-23T04:17:06;99201.91;;;8.38;100.00
10658;BME280;5377;43.276;26.930;2023-04-23T04:19:33;99171.44;;;8.18;100.00
10658;BME280;5377;43.276;26.930;2023-04-23T04:22:00;99218.84;;;8.45;100.00
10658;BME280;5377;43.276;26.930;2023-04-23T04:24:28;99184.94;;;8.31;100.00
10658;BME280;5377;43.276;26.930;2023-04-23T04:26:57;99216.19;;;8.66;100.00
10658;BME280;5377;43.276;26.930;2023-04-23T04:29:24;99220.16;;;8.70;100.00
10658;BME280;5377;43.276;26.930;2023-04-23T04:31:52;99202.59;;;8.61;100.00
10658;BME280;5377;43.276;26.930;2023-04-23T04:34:19;99223.72;;;8.78;100.00
10658;BME280;5377;43.276;26.930;2023-04-23T04:36:46;99225.84;;;8.82;100.00
10658;BME280;5377;43.276;26.930;2023-04-23T04:39:13;99223.94;;;8.76;100.00
10658;BME280;5377;43.276;26.930;2023-04-23T04:41:40;99224.25;;;8.88;100.00
10658;BME280;5377;43.276;26.930;2023-04-23T04:44:07;99214.00;;;8.91;100.00
10658;BME280;5377;43.276;26.930;2023-04-23T04:46:34;99228.44;;;8.97;100.00
10658;BME280;5377;43.276;26.930;2023-04-23T04:49:06;99232.28;;;9.09;100.00
10658;BME280;5377;43.276;26.930;2023-04-23T04:51:34;99232.97;;;9.18;100.00
10658;BME280;5377;43.276;26.930;2023-04-23T04:54:01;99263.34;;;9.10;100.00
10658;BME280;5377;43.276;26.930;2023-04-23T04:56:28;99243.56;;;9.04;100.00
10658;BME280;5377;43.276;26.930;2023-04-23T04:58:55;99245.50;;;8.96;100.00
10658;BME280;5377;43.276;26.930;2023-04-23T05:01:23;99247.94;;;9.12;100.00
10658;BME280;5377;43.276;26.930;2023-04-23T05:03:51;99257.84;;;9.18;100.00
10658;BME280;5377;43.276;26.930;2023-04-23T05:06:19;99250.47;;;9.42;100.00
10658;BME280;5377;43.276;26.930;2023-04-23T05:08:46;99250.91;;;9.45;100.00
10658;BME280;5377;43.276;26.930;2023-04-23T05:11:13;99249.28;;;9.72;100.00
10658;BME280;5377;43.276;26.930;2023-04-23T05:13:40;99242.13;;;9.79;100.00
10658;BME280;5377;43.276;26.930;2023-04-23T05:16:07;99246.94;;;9.90;100.00
10658;BME280;5377;43.276;26.930;2023-04-23T05:18:34;99242.88;;;10.01;100.00
10658;BME280;5377;43.276;26.930;2023-04-23T05:21:01;99238.31;;;10.23;100.00
10658;BME280;5377;43.276;26.930;2023-04-23T05:23:29;99247.63;;;10.27;100.00
10658;BME280;5377;43.276;26.930;2023-04-23T05:25:56;99253.44;;;10.37;100.00
10658;BME280;5377;43.276;26.930;2023-04-23T05:28:23;99250.91;;;10.29;100.00
10658;BME280;5377;43.276;26.930;2023-04-23T05:30:50;99245.56;;;10.29;100.00
10658;BME280;5377;43.276;26.930;2023-04-23T05:33:17;99249.16;;;10.15;100.00
10658;BME280;5377;43.276;26.930;2023-04-23T05:35:44;99252.94;;;10.20;100.00
10658;BME280;5377;43.276;26.930;2023-04-23T05:38:11;99260.91;;;10.14;100.00
10658;BME280;5377;43.276;26.930;2023-04-23T05:40:39;99260.69;;;10.15;100.00
10658;BME280;5377;43.276;26.930;2023-04-23T05:43:06;99256.56;;;10.13;100.00
10658;BME280;5377;43.276;26.930;2023-04-23T05:45:33;99264.91;;;10.24;100.00
10658;BME280;5377;43.276;26.930;2023-04-23T05:47:59;99261.25;;;10.39;100.00
10658;BME280;5377;43.276;26.930;2023-04-23T05:50:26;99262.56;;;10.49;100.00
10658;BME280;5377;43.276;26.930;2023-04-23T05:52:53;99267.56;;;10.66;100.00
10658;BME280;5377;43.276;26.930;2023-04-23T05:55:20;99261.28;;;10.93;100.00
10658;BME280;5377;43.276;26.930;2023-04-23T05:57:49;99252.72;;;11.24;100.00
10658;BME280;5377;43.276;26.930;2023-04-23T06:00:16;99255.44;;;11.50;100.00
10658;BME280;5377;43.276;26.930;2023-04-23T06:02:43;99255.00;;;11.47;100.00
10658;BME280;5377;43.276;26.930;2023-04-23T06:05:10;99256.66;;;11.74;100.00
10658;BME280;5377;43.276;26.930;2023-04-23T06:07:37;99246.38;;;11.91;100.00
10658;BME280;5377;43.276;26.930;2023-04-23T06:10:06;99244.69;;;11.77;100.00
10658;BME280;5377;43.276;26.930;2023-04-23T06:12:33;99245.97;;;11.88;100.00
10658;BME280;5377;43.276;26.930;2023-04-23T06:15:06;99241.38;;;12.01;100.00
10658;BME280;5377;43.276;26.930;2023-04-23T06:17:33;99247.13;;;12.11;100.00
10658;BME280;5377;43.276;26.930;2023-04-23T06:20:01;99241.34;;;12.21;100.00
10658;BME280;5377;43.276;26.930;2023-04-23T06:22:29;99238.44;;;12.29;100.00
10658;BME280;5377;43.276;26.930;2023-04-23T06:24:57;99246.22;;;12.51;100.00
10658;BME280;5377;43.276;26.930;2023-04-23T06:27:24;99241.72;;;12.38;100.00
10658;BME280;5377;43.276;26.930;2023-04-23T06:29:51;99238.41;;;12.36;100.00
10658;BME280;5377;43.276;26.930;2023-04-23T06:32:20;99242.28;;;12.46;100.00
10658;BME280;5377;43.276;26.930;2023-04-23T06:34:47;99237.31;;;12.57;100.00
10658;BME280;5377;43.276;26.930;2023-04-23T06:37:14;99240.63;;;12.59;100.00
10658;BME280;5377;43.276;26.930;2023-04-23T06:39:40;99247.75;;;12.78;100.00
10658;BME280;5377;43.276;26.930;2023-04-23T06:42:07;99240.50;;;12.85;100.00
10658;BME280;5377;43.276;26.930;2023-04-23T06:44:34;99239.94;;;13.08;100.00
10658;BME280;5377;43.276;26.930;2023-04-23T06:47:01;99230.31;;;13.32;100.00
10658;BME280;5377;43.276;26.930;2023-04-23T06:49:29;99227.06;;;13.48;100.00
10658;BME280;5377;43.276;26.930;2023-04-23T06:51:56;99233.63;;;13.59;100.00
10658;BME280;5377;43.276;26.930;2023-04-23T06:54:22;99232.66;;;13.53;100.00
10658;BME280;5377;43.276;26.930;2023-04-23T06:56:49;99237.19;;;13.78;100.00
10658;BME280;5377;43.276;26.930;2023-04-23T06:59:16;99234.41;;;14.09;100.00
10658;BME280;5377;43.276;26.930;2023-04-23T07:01:43;99227.97;;;14.10;100.00
10658;BME280;5377;43.276;26.930;2023-04-23T07:04:10;99235.59;;;14.13;99.05
10658;BME280;5377;43.276;26.930;2023-04-23T07:06:38;99228.44;;;14.25;96.68
10658;BME280;5377;43.276;26.930;2023-04-23T07:09:05;99236.59;;;14.74;98.24
10658;BME280;5377;43.276;26.930;2023-04-23T07:11:32;99225.56;;;14.63;90.64
10658;BME280;5377;43.276;26.930;2023-04-23T07:14:01;99231.31;;;14.67;90.40
10658;BME280;5377;43.276;26.930;2023-04-23T07:16:27;99223.88;;;15.11;85.77
10658;BME280;5377;43.276;26.930;2023-04-23T07:18:57;99231.44;;;15.32;82.96
10658;BME280;5377;43.276;26.930;2023-04-23T07:21:25;99217.72;;;15.45;74.99
10658;BME280;5377;43.276;26.930;2023-04-23T07:23:55;99222.50;;;15.73;74.06
10658;BME280;5377;43.276;26.930;2023-04-23T07:26:23;99229.09;;;15.77;69.93
10658;BME280;5377;43.276;26.930;2023-04-23T07:28:50;99225.22;;;15.73;66.34
10658;BME280;5377;43.276;26.930;2023-04-23T07:31:17;99221.22;;;15.76;66.93
10658;BME280;5377;43.276;26.930;2023-04-23T07:33:44;99208.06;;;15.79;66.77
10658;BME280;5377;43.276;26.930;2023-04-23T07:36:11;99220.25;;;15.94;66.42
10658;BME280;5377;43.276;26.930;2023-04-23T07:38:38;99221.47;;;15.98;67.29
10658;BME280;5377;43.276;26.930;2023-04-23T07:41:06;99222.97;;;15.82;65.19
10658;BME280;5377;43.276;26.930;2023-04-23T07:43:33;99211.56;;;15.91;65.56
10658;BME280;5377;43.276;26.930;2023-04-23T07:46:00;99220.13;;;16.23;63.23
10658;BME280;5377;43.276;26.930;2023-04-23T07:48:27;99215.19;;;16.20;60.72
10658;BME280;5377;43.276;26.930;2023-04-23T07:50:53;99210.16;;;16.24;59.68
10658;BME280;5377;43.276;26.930;2023-04-23T07:53:21;99208.63;;;16.16;58.07
10658;BME280;5377;43.276;26.930;2023-04-23T07:55:47;99206.28;;;16.60;58.23
10658;BME280;5377;43.276;26.930;2023-04-23T07:58:15;99200.59;;;17.30;59.77
10658;BME280;5377;43.276;26.930;2023-04-23T08:00:42;99204.38;;;17.29;53.01
10658;BME280;5377;43.276;26.930;2023-04-23T08:03:09;99196.84;;;17.65;49.61
10658;BME280;5377;43.276;26.930;2023-04-23T08:05:36;99191.34;;;18.32;47.56
10658;BME280;5377;43.276;26.930;2023-04-23T08:08:05;99190.59;;;18.58;49.10
10658;BME280;5377;43.276;26.930;2023-04-23T08:10:32;99191.44;;;19.40;48.41
10658;BME280;5377;43.276;26.930;2023-04-23T08:12:59;99180.28;;;19.63;42.16
10658;BME280;5377;43.276;26.930;2023-04-23T08:15:27;99185.72;;;20.52;42.22
10658;BME280;5377;43.276;26.930;2023-04-23T08:17:54;99173.94;;;21.50;40.39
10658;BME280;5377;43.276;26.930;2023-04-23T08:20:21;99176.69;;;21.60;40.23
10658;BME280;5377;43.276;26.930;2023-04-23T08:22:48;99179.34;;;21.09;37.74
10658;BME280;5377;43.276;26.930;2023-04-23T08:25:18;99172.28;;;21.79;37.04
10658;BME280;5377;43.276;26.930;2023-04-23T08:27:45;99167.63;;;22.05;36.90
10658;BME280;5377;43.276;26.930;2023-04-23T08:30:12;99175.13;;;20.61;36.66
10658;BME280;5377;43.276;26.930;2023-04-23T08:32:40;99181.84;;;21.41;34.88
10658;BME280;5377;43.276;26.930;2023-04-23T08:35:07;99170.94;;;21.41;33.92
10658;BME280;5377;43.276;26.930;2023-04-23T08:37:34;99170.03;;;22.27;33.50
10658;BME280;5377;43.276;26.930;2023-04-23T08:40:04;99167.47;;;22.51;34.15
10658;BME280;5377;43.276;26.930;2023-04-23T08:42:36;99163.94;;;22.46;34.27
10658;BME280;5377;43.276;26.930;2023-04-23T08:45:04;99157.22;;;22.23;33.77
10658;BME280;5377;43.276;26.930;2023-04-23T08:47:31;99161.19;;;22.56;33.32
10658;BME280;5377;43.276;26.930;2023-04-23T08:50:03;99156.84;;;22.45;31.95
10658;BME280;5377;43.276;26.930;2023-04-23T08:52:33;99156.00;;;22.59;33.42
10658;BME280;5377;43.276;26.930;2023-04-23T08:55:01;99158.38;;;23.83;29.96
10658;BME280;5377;43.276;26.930;2023-04-23T08:57:30;99132.13;;;23.82;31.52
10658;BME280;5377;43.276;26.930;2023-04-23T08:59:57;99150.34;;;23.34;33.95
10658;BME280;5377;43.276;26.930;2023-04-23T09:02:25;99151.25;;;23.19;33.57
10658;BME280;5377;43.276;26.930;2023-04-23T09:04:53;99145.47;;;23.89;32.82
10658;BME280;5377;43.276;26.930;2023-04-23T09:07:21;99141.16;;;23.83;31.46
10658;BME280;5377;43.276;26.930;2023-04-23T09:09:49;99140.59;;;24.57;29.38
10658;BME280;5377;43.276;26.930;2023-04-23T09:12:15;99143.09;;;24.35;31.66
10658;BME280;5377;43.276;26.930;2023-04-23T09:14:43;99142.25;;;23.82;31.53
10658;BME280;5377;43.276;26.930;2023-04-23T09:17:10;99142.19;;;24.40;32.47
10658;BME280;5377;43.276;26.930;2023-04-23T09:19:38;99135.41;;;24.56;32.64
10658;BME280;5377;43.276;26.930;2023-04-23T09:22:06;99144.03;;;24.20;32.82
10658;BME280;5377;43.276;26.930;2023-04-23T09:24:34;99125.00;;;24.77;31.48
10658;BME280;5377;43.276;26.930;2023-04-23T09:27:02;99135.88;;;24.63;31.76
10658;BME280;5377;43.276;26.930;2023-04-23T09:29:29;99130.03;;;24.70;29.82
10658;BME280;5377;43.276;26.930;2023-04-23T09:32:05;99127.50;;;24.07;29.90
10658;BME280;5377;43.276;26.930;2023-04-23T09:34:34;99136.84;;;23.09;30.94
10658;BME280;5377;43.276;26.930;2023-04-23T09:37:01;99129.19;;;24.03;30.52
10658;BME280;5377;43.276;26.930;2023-04-23T09:39:29;99121.03;;;24.21;31.04
10658;BME280;5377;43.276;26.930;2023-04-23T09:42:04;99118.72;;;24.10;30.01
10658;BME280;5377;43.276;26.930;2023-04-23T09:44:33;99127.06;;;24.66;29.56
10658;BME280;5377;43.276;26.930;2023-04-23T09:47:05;99112.66;;;25.31;27.98
10658;BME280;5377;43.276;26.930;2023-04-23T09:49:44;99110.13;;;24.64;29.08
10658;BME280;5377;43.276;26.930;2023-04-23T09:52:12;99114.09;;;24.53;29.54
10658;BME280;5377;43.276;26.930;2023-04-23T09:54:39;99108.28;;;24.12;29.73
10658;BME280;5377;43.276;26.930;2023-04-23T09:57:07;99107.75;;;23.62;29.69
10658;BME280;5377;43.276;26.930;2023-04-23T09:59:34;99113.06;;;24.01;30.59
10658;BME280;5377;43.276;26.930;2023-04-23T10:02:03;99105.19;;;24.42;28.83
10658;BME280;5377;43.276;26.930;2023-04-23T10:04:30;99108.78;;;23.95;31.08
10658;BME280;5377;43.276;26.930;2023-04-23T10:06:59;99103.84;;;24.16;30.53
10658;BME280;5377;43.276;26.930;2023-04-23T10:09:27;99102.53;;;24.56;28.08
10658;BME280;5377;43.276;26.930;2023-04-23T10:11:55;99103.22;;;24.85;30.12
10658;BME280;5377;43.276;26.930;2023-04-23T10:14:25;99096.75;;;24.39;27.35
10658;BME280;5377;43.276;26.930;2023-04-23T10:16:59;99087.72;;;24.95;27.78
10658;BME280;5377;43.276;26.930;2023-04-23T10:19:28;99080.34;;;25.28;28.59
10658;BME280;5377;43.276;26.930;2023-04-23T10:21:56;99088.84;;;25.12;28.68
10658;BME280;5377;43.276;26.930;2023-04-23T10:24:25;99087.41;;;25.80;27.72
10658;BME280;5377;43.276;26.930;2023-04-23T10:26:55;99075.75;;;25.42;27.95
10658;BME280;5377;43.276;26.930;2023-04-23T10:29:26;99076.78;;;25.60;28.97
10658;BME280;5377;43.276;26.930;2023-04-23T10:31:55;99067.50;;;26.02;29.47
10658;BME280;5377;43.276;26.930;2023-04-23T10:34:23;99068.50;;;25.92;29.85
10658;BME280;5377;43.276;26.930;2023-04-23T10:36:50;99063.34;;;25.44;29.41
10658;BME280;5377;43.276;26.930;2023-04-23T10:39:19;99068.50;;;24.81;28.80
10658;BME280;5377;43.276;26.930;2023-04-23T10:41:47;99057.47;;;25.65;28.07
10658;BME280;5377;43.276;26.930;2023-04-23T10:44:14;99053.25;;;25.86;28.15
10658;BME280;5377;43.276;26.930;2023-04-23T10:46:52;99059.50;;;25.45;27.02
10658;BME280;5377;43.276;26.930;2023-04-23T10:49:22;99067.16;;;24.78;27.88
10658;BME280;5377;43.276;26.930;2023-04-23T10:51:57;99056.84;;;25.54;26.46
10658;BME280;5377;43.276;26.930;2023-04-23T10:54:28;99060.16;;;26.11;26.98
10658;BME280;5377;43.276;26.930;2023-04-23T10:56:58;99059.09;;;25.06;28.88
10658;BME280;5377;43.276;26.930;2023-04-23T10:59:26;99051.47;;;25.63;26.59
10658;BME280;5377;43.276;26.930;2023-04-23T11:01:57;99038.16;;;26.52;25.74
10658;BME280;5377;43.276;26.930;2023-04-23T11:04:28;99035.16;;;26.62;25.85
10658;BME280;5377;43.276;26.930;2023-04-23T11:06:56;99046.34;;;25.89;27.04
10658;BME280;5377;43.276;26.930;2023-04-23T11:09:28;99038.88;;;25.48;26.14
10658;BME280;5377;43.276;26.930;2023-04-23T11:11:55;99045.69;;;25.50;26.11
10658;BME280;5377;43.276;26.930;2023-04-23T11:14:32;99034.50;;;25.01;25.99
10658;BME280;5377;43.276;26.930;2023-04-23T11:17:02;99031.81;;;26.02;26.64
10658;BME280;5377;43.276;26.930;2023-04-23T11:19:28;99022.41;;;26.44;27.21
10658;BME280;5377;43.276;26.930;2023-04-23T11:22:00;99026.22;;;26.07;26.86
10658;BME280;5377;43.276;26.930;2023-04-23T11:24:29;99024.84;;;26.68;26.72
10658;BME280;5377;43.276;26.930;2023-04-23T11:26:57;99019.59;;;26.08;26.02
10658;BME280;5377;43.276;26.930;2023-04-23T11:29:25;99019.38;;;26.18;25.33
10658;BME280;5377;43.276;26.930;2023-04-23T11:31:53;99019.53;;;26.49;24.36
10658;BME280;5377;43.276;26.930;2023-04-23T11:34:21;99012.06;;;26.86;25.71
10658;BME280;5377;43.276;26.930;2023-04-23T11:36:51;99004.94;;;26.40;26.49
10658;BME280;5377;43.276;26.930;2023-04-23T11:39:18;99009.63;;;26.62;25.93
10658;BME280;5377;43.276;26.930;2023-04-23T11:41:45;99015.38;;;27.81;27.52
10658;BME280;5377;43.276;26.930;2023-04-23T11:44:12;99009.06;;;27.80;25.17
10658;BME280;5377;43.276;26.930;2023-04-23T11:46:39;99010.59;;;28.21;27.12
10658;BME280;5377;43.276;26.930;2023-04-23T11:49:06;99012.44;;;28.25;23.65
10658;BME280;5377;43.276;26.930;2023-04-23T11:51:40;99005.38;;;27.54;23.76
10658;BME280;5377;43.276;26.930;2023-04-23T11:54:08;99009.50;;;26.45;25.75
10658;BME280;5377;43.276;26.930;2023-04-23T11:56:35;99013.94;;;25.17;26.62
10658;BME280;5377;43.276;26.930;2023-04-23T11:59:03;99014.72;;;24.10;27.34
10658;BME280;5377;43.276;26.930;2023-04-23T12:01:39;99018.06;;;23.59;27.44
10658;BME280;5377;43.276;26.930;2023-04-23T12:04:14;99009.69;;;22.53;28.85
10658;BME280;5377;43.276;26.930;2023-04-23T12:06:43;99008.63;;;22.00;29.46
10658;BME280;5377;43.276;26.930;2023-04-23T12:09:12;98997.59;;;22.20;28.91
10658;BME280;5377;43.276;26.930;2023-04-23T12:11:39;98995.25;;;22.87;28.56
10658;BME280;5377;43.276;26.930;2023-04-23T12:14:06;98979.97;;;24.10;29.50
10658;BME280;5377;43.276;26.930;2023-04-23T12:16:38;98985.50;;;24.99;28.30
10658;BME280;5377;43.276;26.930;2023-04-23T12:19:08;98971.53;;;25.56;26.73
10658;BME280;5377;43.276;26.930;2023-04-23T12:21:48;98973.25;;;24.92;26.45
10658;BME280;5377;43.276;26.930;2023-04-23T12:24:15;98967.34;;;24.84;26.69
10658;BME280;5377;43.276;26.930;2023-04-23T12:26:42;98968.34;;;24.75;25.96
10658;BME280;5377;43.276;26.930;2023-04-23T12:29:12;98962.88;;;25.62;24.57
10658;BME280;5377;43.276;26.930;2023-04-23T12:31:39;98957.91;;;26.64;23.85
10658;BME280;5377;43.276;26.930;2023-04-23T12:34:06;98954.00;;;27.41;23.00
10658;BME280;5377;43.276;26.930;2023-04-23T12:36:35;98952.25;;;28.02;22.60
10658;BME280;5377;43.276;26.930;2023-04-23T12:39:25;98943.19;;;28.79;22.91
10658;BME280;5377;43.276;26.930;2023-04-23T12:41:53;98935.38;;;28.98;22.48
10658;BME280;5377;43.276;26.930;2023-04-23T12:44:20;98940.25;;;27.98;22.77
10658;BME280;5377;43.276;26.930;2023-04-23T12:46:54;98943.47;;;27.34;23.29
10658;BME280;5377;43.276;26.930;2023-04-23T12:49:21;98942.38;;;27.44;23.36
10658;BME280;5377;43.276;26.930;2023-04-23T12:51:48;98931.41;;;28.26;21.99
10658;BME280;5377;43.276;26.930;2023-04-23T12:54:17;98922.44;;;27.38;23.34
10658;BME280;5377;43.276;26.930;2023-04-23T12:56:45;98920.19;;;28.06;23.62
10658;BME280;5377;43.276;26.930;2023-04-23T12:59:11;98930.22;;;28.02;22.35
10658;BME280;5377;43.276;26.930;2023-04-23T13:01:38;98915.59;;;28.79;21.47
10658;BME280;5377;43.276;26.930;2023-04-23T13:04:06;98905.84;;;29.45;22.15